createdAt,value
2022-08-26T14:23:14.386Z,52.0690918
2022-08-26T14:24:13.968Z,72.92480469
2022-08-26T14:25:14.431Z,74.82299805
2022-08-26T14:26:28.784Z,74.82299805
2022-08-26T14:27:16.899Z,73.22387695
2022-08-26T14:28:17.487Z,73.25439453
2022-08-26T14:29:17.851Z,73.85864258
2022-08-26T14:30:18.389Z,74.55444336
2022-08-26T14:31:18.905Z,74.4934082
2022-08-26T14:32:19.340Z,74.6887207
2022-08-26T14:33:19.852Z,75.59204102
2022-08-26T14:34:20.278Z,74.29199219
2022-08-26T14:35:20.754Z,76.19018555
2022-08-26T14:36:21.225Z,76.59301758
2022-08-26T14:37:21.682Z,78.7902832
2022-08-26T14:38:22.166Z,78.95507813
2022-08-26T14:39:22.620Z,79.25415039
2022-08-26T14:40:23.095Z,78.15551758
2022-08-26T14:41:24.495Z,77.41699219
2022-08-26T14:42:25.034Z,75.21972656
2022-08-26T14:43:25.725Z,75.01831055
2022-08-26T14:44:25.986Z,73.62060547
2022-08-26T14:45:26.421Z,72.72338867
2022-08-26T14:46:27.718Z,71.88720703
2022-08-26T14:47:28.116Z,72.58911133
2022-08-26T14:48:28.577Z,72.88818359
2022-08-26T14:49:29.202Z,73.38867188
2022-08-26T14:50:29.654Z,73.98681641
2022-08-26T14:51:31.148Z,74.68261719
2022-08-26T14:52:31.662Z,74.58496094
2022-08-26T14:53:32.240Z,75.28076172
2022-08-26T14:54:32.655Z,75.28076172
2022-08-26T14:55:33.095Z,75.68359375
2022-08-26T14:56:34.189Z,75.78125
2022-08-26T14:58:05.091Z,75.88500977
2022-08-26T14:59:05.495Z,75.78125
2022-08-26T15:00:06.020Z,75.48217773
2022-08-26T15:01:06.332Z,74.8840332
2022-08-26T15:02:07.047Z,73.48632813
2022-08-26T15:03:07.599Z,73.58398438
2022-08-26T15:04:07.894Z,73.38867188
2022-08-26T15:05:08.317Z,74.68261719
2022-08-26T15:06:08.772Z,74.28588867
2022-08-26T15:07:09.907Z,74.78637695
2022-08-26T15:08:10.868Z,75.68359375
2022-08-26T15:09:10.850Z,75.68359375
2022-08-26T15:10:11.506Z,76.58081055
2022-08-26T15:11:11.969Z,76.4831543
2022-08-26T15:12:12.446Z,77.17895508
2022-08-26T15:13:12.919Z,77.17895508
2022-08-26T15:14:19.214Z,77.08129883
2022-08-26T15:15:14.323Z,75.5859375
2022-08-26T15:16:14.816Z,73.85253906
2022-08-26T15:17:15.945Z,73.44970703
2022-08-26T15:18:16.454Z,74.04785156
2022-08-26T15:19:16.937Z,73.15063477
2022-08-26T15:20:17.397Z,72.94921875
2022-08-26T15:21:17.814Z,72.35107422
2022-08-26T15:22:18.883Z,74.04785156
2022-08-26T15:23:19.338Z,73.44970703
2022-08-26T15:24:19.819Z,73.25439453
2022-08-26T15:25:20.194Z,75.14648438
2022-08-26T15:26:20.651Z,74.54833984
2022-08-26T15:27:21.891Z,75.04882813
2022-08-26T15:28:22.432Z,75.01220703
2022-08-26T15:29:22.856Z,74.61547852
2022-08-26T15:30:23.268Z,74.81079102
2022-08-26T15:31:23.746Z,74.51171875
2022-08-26T15:32:24.143Z,74.24926758
2022-08-26T15:33:24.594Z,74.24926758
2022-08-26T15:34:25.086Z,73.95019531
2022-08-26T15:35:25.480Z,74.24926758
2022-08-26T15:36:25.920Z,74.64599609
2022-08-26T15:37:27.409Z,74.54833984
2022-08-26T15:38:27.867Z,74.84741211
2022-08-26T15:39:28.449Z,75.34790039
2022-08-26T15:40:29.027Z,75.84838867
2022-08-26T15:41:29.453Z,76.4465332
2022-08-26T15:42:29.937Z,77.14233398
2022-08-26T15:43:30.498Z,77.80761719
2022-08-26T15:44:31.143Z,78.60107422
2022-08-26T15:45:31.443Z,78.50341797
2022-08-26T15:46:31.906Z,78.70483398
2022-08-26T15:47:32.879Z,78.10668945
2022-08-26T15:49:03.834Z,77.80761719
2022-08-26T15:50:04.387Z,77.60620117
2022-08-26T15:51:04.777Z,77.40478516
2022-08-26T15:52:05.422Z,77.50854492
2022-08-26T15:53:05.710Z,77.30712891
2022-08-26T15:54:06.223Z,77.30712891
2022-08-26T15:55:06.736Z,77.30712891
2022-08-26T15:56:07.132Z,77.77099609
2022-08-26T15:57:10.813Z,78.07006836
2022-08-26T15:58:08.087Z,77.96630859
2022-08-26T15:59:08.517Z,78.16772461
2022-08-26T16:00:09.093Z,78.46679688
2022-08-26T16:01:09.468Z,78.80249023
2022-08-26T16:02:09.946Z,78.66821289
2022-08-26T16:03:10.330Z,78.56445313
2022-08-26T16:04:10.829Z,78.56445313
2022-08-26T16:05:11.538Z,78.76586914
2022-08-26T16:06:12.038Z,78.36914063
2022-08-26T16:07:13.139Z,78.86352539
2022-08-26T16:08:13.573Z,78.56445313
2022-08-26T16:09:14.047Z,78.96728516
2022-08-26T16:10:14.562Z,79.36401367
2022-08-26T16:11:15.013Z,79.56542969
2022-08-26T16:13:16.702Z,79.86450195
2022-08-26T16:14:17.047Z,79.86450195
2022-08-26T16:15:17.533Z,79.9621582
2022-08-26T16:16:18.114Z,79.9621582
2022-08-26T16:17:19.141Z,80.05981445
2022-08-26T16:18:19.560Z,80.46264648
2022-08-26T16:19:20.034Z,80.56030273
2022-08-26T16:20:20.505Z,80.65795898
2022-08-26T16:21:21.881Z,80.46264648
2022-08-26T16:22:22.892Z,80.16357422
2022-08-26T16:23:23.321Z,79.9621582
2022-08-26T16:24:28.441Z,79.66308594
2022-08-26T16:25:24.282Z,79.46166992
2022-08-26T16:26:24.732Z,79.76074219
2022-08-26T16:27:26.153Z,79.36401367
2022-08-26T16:28:26.593Z,78.66821289
2022-08-26T16:29:27.037Z,78.46679688
2022-08-26T16:30:27.501Z,78.36914063
2022-08-26T16:31:27.969Z,78.56445313
2022-08-26T16:32:31.147Z,78.76586914
2022-08-26T16:33:29.182Z,78.86352539
2022-08-26T16:34:29.248Z,78.96728516
2022-08-26T16:35:29.735Z,78.96728516
2022-08-26T16:36:30.114Z,78.96728516
2022-08-26T16:37:31.138Z,78.86352539
2022-08-26T16:38:31.610Z,79.36401367
2022-08-26T16:40:03.206Z,79.36401367
2022-08-26T16:41:03.574Z,79.56542969
2022-08-26T16:42:04.651Z,79.40063477
2022-08-26T16:43:05.054Z,79.60205078
2022-08-26T16:44:05.488Z,79.8034668
2022-08-26T16:45:05.964Z,79.69970703
2022-08-26T16:46:07.405Z,79.1015625
2022-08-26T16:47:07.795Z,78.60107422
2022-08-26T16:48:09.043Z,78.60107422
2022-08-26T16:49:09.282Z,78.30200195
2022-08-26T16:50:09.735Z,78.2043457
2022-08-26T16:51:10.221Z,77.80761719
2022-08-26T16:52:11.406Z,76.80664063
2022-08-26T16:54:12.234Z,77.10571289
2022-08-26T16:55:12.687Z,76.80664063
2022-08-26T16:56:13.148Z,76.80664063
2022-08-26T16:57:13.558Z,77.00805664
2022-08-26T16:58:13.961Z,77.20947266
2022-08-26T16:59:14.390Z,77.50854492
2022-08-26T17:00:14.820Z,77.80761719
2022-08-26T17:01:15.325Z,78.00292969
2022-08-26T17:02:15.860Z,77.90527344
2022-08-26T17:03:17.172Z,77.70385742
2022-08-26T17:04:17.582Z,77.70385742
2022-08-26T17:05:18.009Z,77.90527344
2022-08-26T17:06:18.461Z,78.03955078
2022-08-26T17:07:18.947Z,78.2043457
2022-08-26T17:08:24.246Z,78.10668945
2022-08-26T17:09:19.831Z,78.10668945
2022-08-26T17:10:20.238Z,78.00292969
2022-08-26T17:11:20.701Z,78.00292969
2022-08-26T17:12:21.078Z,77.80761719
2022-08-26T17:13:31.615Z,77.90527344
2022-08-26T17:14:21.907Z,78.00292969
2022-08-26T17:15:22.331Z,77.90527344
2022-08-26T17:16:26.586Z,77.90527344
2022-08-26T17:17:24.162Z,77.80761719
2022-08-26T17:18:24.576Z,77.70385742
2022-08-26T17:19:25.018Z,77.80761719
2022-08-26T17:20:25.441Z,77.80761719
2022-08-26T17:21:25.922Z,77.80761719
2022-08-26T17:22:29.537Z,78.00292969
2022-08-26T17:23:27.296Z,78.00292969
2022-08-26T17:24:27.743Z,78.10668945
2022-08-26T17:25:28.282Z,78.10668945
2022-08-26T17:26:28.805Z,78.40576172
2022-08-26T17:27:30.173Z,78.2409668
2022-08-26T17:28:31.180Z,78.54003906
2022-08-26T17:29:31.612Z,78.94287109
2022-08-26T17:31:02.541Z,78.64379883
2022-08-26T17:32:02.918Z,78.64379883
2022-08-26T17:33:10.955Z,78.74145508
2022-08-26T17:34:03.796Z,78.94287109
2022-08-26T17:35:04.248Z,78.54003906
2022-08-26T17:36:04.673Z,78.64379883
2022-08-26T17:37:05.124Z,79.13818359
2022-08-26T17:38:05.648Z,79.54101563
2022-08-26T17:39:05.943Z,79.33959961
2022-08-26T17:40:06.454Z,79.13818359
2022-08-26T17:41:06.797Z,79.00390625
2022-08-26T17:42:07.262Z,79.00390625
2022-08-26T17:43:12.108Z,79.33959961
2022-08-26T17:44:08.168Z,79.49829102
2022-08-26T17:45:08.691Z,79.60205078
2022-08-26T17:46:09.086Z,79.30297852
2022-08-26T17:47:09.502Z,79.19921875
2022-08-26T17:48:11.064Z,79.13818359
2022-08-26T17:49:11.477Z,79.54101563
2022-08-26T17:50:11.920Z,79.00390625
2022-08-26T17:51:13.173Z,78.90014648
2022-08-26T17:52:13.669Z,78.40576172
2022-08-26T17:53:18.559Z,78.74145508
2022-08-26T17:54:14.579Z,78.74145508
2022-08-26T17:55:15.029Z,79.04052734
2022-08-26T17:56:15.479Z,79.33959961
2022-08-26T17:57:15.940Z,79.04052734
2022-08-26T17:58:16.896Z,79.04052734
2022-08-26T17:59:17.305Z,79.04052734
2022-08-26T18:00:17.721Z,79.33959961
2022-08-26T18:01:18.194Z,79.43725586
2022-08-26T18:02:19.460Z,79.33959961
2022-08-26T18:03:19.907Z,79.54101563
2022-08-26T18:04:20.379Z,79.24194336
2022-08-26T18:05:20.753Z,78.14331055
2022-08-26T18:06:21.181Z,77.64282227
2022-08-26T18:07:21.621Z,77.84423828
2022-08-26T18:08:22.931Z,77.64282227
2022-08-26T18:09:23.361Z,77.44140625
2022-08-26T18:10:23.811Z,77.24609375
2022-08-26T18:11:24.242Z,76.84326172
2022-08-26T18:12:25.512Z,76.94702148
2022-08-26T18:13:25.622Z,76.84326172
2022-08-26T18:14:26.055Z,77.34375
2022-08-26T18:15:26.514Z,77.44140625
2022-08-26T18:16:26.885Z,77.64282227
2022-08-26T18:17:27.327Z,77.74047852
2022-08-26T18:18:28.392Z,76.4465332
2022-08-26T18:19:28.924Z,76.04370117
2022-08-26T18:20:29.377Z,76.34277344
2022-08-26T18:21:29.813Z,76.84326172
2022-08-26T18:22:30.282Z,76.94702148
2022-08-26T18:23:31.348Z,76.94702148
2022-08-26T18:25:01.810Z,76.34277344
2022-08-26T18:26:02.249Z,76.64794922
2022-08-26T18:27:02.697Z,76.34277344
2022-08-26T18:28:03.703Z,76.4465332
2022-08-26T18:29:04.109Z,76.24511719
2022-08-26T18:30:04.524Z,75.88500977
2022-08-26T18:31:05.067Z,75.98266602
2022-08-26T18:32:05.425Z,76.28173828
2022-08-26T18:33:05.943Z,76.4831543
2022-08-26T18:34:06.274Z,77.08129883
2022-08-26T18:35:06.702Z,77.08129883
2022-08-26T18:36:07.121Z,75.98266602
2022-08-26T18:38:11.441Z,75.88500977
2022-08-26T18:39:09.109Z,76.18408203
2022-08-26T18:40:09.598Z,75.78125
2022-08-26T18:41:09.943Z,75.5859375
2022-08-26T18:42:10.405Z,75.48217773
2022-08-26T18:43:10.886Z,75.5859375
2022-08-26T18:44:13.612Z,75.5859375
2022-08-26T18:45:15.953Z,75.68359375
2022-08-26T18:46:12.416Z,75.68359375
2022-08-26T18:47:12.746Z,76.37939453
2022-08-26T18:48:13.201Z,76.87988281
2022-08-26T18:49:13.560Z,76.87988281
2022-08-26T18:50:13.995Z,76.87988281
2022-08-26T18:51:14.469Z,76.4831543
2022-08-26T18:52:15.412Z,76.22070313
2022-08-26T18:53:15.929Z,76.61743164
2022-08-26T18:54:17.212Z,76.61743164
2022-08-26T18:55:17.702Z,76.51977539
2022-08-26T18:56:18.755Z,76.51977539
2022-08-26T18:57:18.603Z,76.41601563
2022-08-26T18:58:19.736Z,76.51977539
2022-08-26T18:59:20.180Z,75.31738281
2022-08-26T19:00:20.691Z,74.71923828
2022-08-26T19:01:25.487Z,74.42016602
2022-08-26T19:02:21.984Z,74.0234375
2022-08-26T19:03:22.036Z,74.12109375
2022-08-26T19:04:22.480Z,73.82202148
2022-08-26T19:05:22.955Z,73.41918945
2022-08-26T19:06:23.513Z,73.91967773
2022-08-26T19:07:24.691Z,73.62060547
2022-08-26T19:08:25.718Z,73.52294922
2022-08-26T19:09:26.125Z,73.82202148
2022-08-26T19:10:26.626Z,74.0234375
2022-08-26T19:11:32.311Z,73.62060547
2022-08-26T19:12:27.469Z,73.91967773
2022-08-26T19:13:27.931Z,74.21875
2022-08-26T19:14:28.388Z,74.51782227
2022-08-26T19:15:28.856Z,74.32250977
2022-08-26T19:16:29.329Z,74.51782227
2022-08-26T19:17:29.759Z,73.41918945
2022-08-26T19:18:30.272Z,73.71826172
2022-08-26T19:20:01.132Z,73.55957031
2022-08-26T19:21:01.593Z,73.15673828
2022-08-26T19:22:02.703Z,73.65722656
2022-08-26T19:23:10.502Z,72.85766602
2022-08-26T19:24:03.649Z,72.65625
2022-08-26T19:25:04.612Z,73.25439453
2022-08-26T19:26:05.090Z,73.45581055
2022-08-26T19:27:05.828Z,73.55957031
2022-08-26T19:28:06.271Z,73.25439453
2022-08-26T19:29:07.513Z,73.05908203
2022-08-26T19:30:07.891Z,73.3581543
2022-08-26T19:31:08.386Z,73.25439453
2022-08-26T19:32:08.822Z,73.55957031
2022-08-26T19:33:10.429Z,73.25439453
2022-08-26T19:34:11.030Z,73.55957031
2022-08-26T19:35:11.739Z,73.25439453
2022-08-26T19:36:14.824Z,73.65722656
2022-08-26T19:37:12.627Z,73.3581543
2022-08-26T19:38:13.114Z,73.55957031
2022-08-26T19:39:14.456Z,73.85864258
2022-08-26T19:40:14.981Z,73.55957031
2022-08-26T19:41:15.346Z,73.55957031
2022-08-26T19:42:15.783Z,73.38867188
2022-08-26T19:43:16.972Z,73.49243164
2022-08-26T19:44:17.470Z,73.69384766
2022-08-26T19:45:24.578Z,73.79150391
2022-08-26T19:46:18.469Z,73.88916016
2022-08-26T19:47:18.860Z,74.29199219
2022-08-26T19:48:19.319Z,74.4934082
2022-08-26T19:49:20.530Z,74.4934082
2022-08-26T19:50:20.949Z,74.29199219
2022-08-26T19:51:21.461Z,74.29199219
2022-08-26T19:52:21.994Z,74.19433594
2022-08-26T19:53:22.416Z,74.29199219
2022-08-26T19:54:22.912Z,74.29199219
2022-08-26T19:55:23.370Z,73.59008789
2022-08-26T19:56:23.995Z,73.59008789
2022-08-26T19:57:24.525Z,73.08959961
2022-08-26T19:58:25.700Z,72.99194336
2022-08-26T19:59:26.232Z,73.08959961
2022-08-26T20:00:26.658Z,73.49243164
2022-08-26T20:01:27.143Z,73.59008789
2022-08-26T20:02:27.634Z,73.69384766
2022-08-26T20:03:28.000Z,73.19335938
2022-08-26T20:04:28.522Z,73.19335938
2022-08-26T20:05:29.014Z,73.19335938
2022-08-26T20:06:29.451Z,73.88916016
2022-08-26T20:08:00.548Z,73.22387695
2022-08-26T20:09:01.902Z,72.29003906
2022-08-26T20:10:02.440Z,72.19238281
2022-08-26T20:11:02.881Z,72.29003906
2022-08-26T20:12:03.397Z,72.58911133
2022-08-26T20:13:03.858Z,72.89428711
2022-08-26T20:14:04.279Z,72.99194336
2022-08-26T20:15:04.795Z,72.99194336
2022-08-26T20:16:05.245Z,72.79052734
2022-08-26T20:17:05.752Z,72.29003906
2022-08-26T20:18:06.250Z,71.89331055
2022-08-26T20:19:07.440Z,72.39379883
2022-08-26T20:20:08.095Z,72.99194336
2022-08-26T20:21:08.508Z,72.99194336
2022-08-26T20:22:09.738Z,72.79052734
2022-08-26T20:23:10.356Z,72.69287109
2022-08-26T20:24:10.822Z,73.22387695
2022-08-26T20:25:11.586Z,73.92578125
2022-08-26T20:26:11.991Z,73.828125
2022-08-26T20:27:12.446Z,73.828125
2022-08-26T20:28:12.920Z,74.12719727
2022-08-26T20:29:13.960Z,74.02954102
2022-08-26T20:30:14.433Z,73.42529297
2022-08-26T20:31:14.862Z,74.12719727
2022-08-26T20:32:15.405Z,73.72436523
2022-08-26T20:33:15.802Z,73.42529297
2022-08-26T20:34:16.235Z,72.22900391
2022-08-26T20:35:16.705Z,72.62573242
2022-08-26T20:36:17.156Z,72.72338867
2022-08-26T20:37:17.739Z,72.82714844
2022-08-26T20:38:21.437Z,72.32666016
2022-08-26T20:39:19.548Z,72.52807617
2022-08-26T20:40:20.118Z,72.82714844
2022-08-26T20:41:20.520Z,72.82714844
2022-08-26T20:42:21.061Z,72.72338867
2022-08-26T20:43:21.839Z,72.92480469
2022-08-26T20:44:22.284Z,71.82617188
2022-08-26T20:45:22.839Z,71.42333984
2022-08-26T20:46:25.035Z,71.52709961
2022-08-26T20:47:23.904Z,71.42333984
2022-08-26T20:48:25.416Z,71.02661133
2022-08-26T20:49:26.412Z,71.25854492
2022-08-26T20:50:26.849Z,71.7590332
2022-08-26T20:51:27.332Z,72.16186523
2022-08-26T20:52:28.719Z,72.25952148
2022-08-26T20:53:30.092Z,72.16186523
2022-08-26T20:55:00.796Z,71.72851563
2022-08-26T20:56:01.551Z,71.32568359
2022-08-26T20:57:01.967Z,71.32568359
2022-08-26T20:58:02.439Z,71.12426758
2022-08-26T20:59:02.865Z,71.52709961
2022-08-26T21:00:04.449Z,71.52709961
2022-08-26T21:01:07.744Z,71.62475586
2022-08-26T21:02:05.530Z,71.32568359
2022-08-26T21:03:05.975Z,71.32568359
2022-08-26T21:04:06.427Z,71.45996094
2022-08-26T21:05:06.939Z,71.96044922
2022-08-26T21:06:07.459Z,71.7590332
2022-08-26T21:07:07.882Z,71.7590332
2022-08-26T21:08:08.373Z,71.96044922
2022-08-26T21:09:09.706Z,72.05810547
2022-08-26T21:10:10.158Z,72.05810547
2022-08-26T21:11:10.690Z,72.05810547
2022-08-26T21:12:11.103Z,72.4609375
2022-08-26T21:13:11.774Z,72.55859375
2022-08-26T21:14:16.248Z,72.55859375
2022-08-26T21:15:12.639Z,72.72338867
2022-08-26T21:16:13.185Z,73.46191406
2022-08-26T21:17:14.219Z,73.55957031
2022-08-26T21:18:14.673Z,73.22387695
2022-08-26T21:19:15.728Z,72.82714844
2022-08-26T21:20:16.162Z,73.1262207
2022-08-26T21:21:16.638Z,72.92480469
2022-08-26T21:22:17.126Z,72.55859375
2022-08-26T21:23:17.571Z,72.4609375
2022-08-26T21:24:17.994Z,72.66235352
2022-08-26T21:25:18.432Z,72.86376953
2022-08-26T21:26:18.888Z,72.76000977
2022-08-26T21:27:23.051Z,72.22900391
2022-08-26T21:28:19.874Z,72.22900391
2022-08-26T21:29:21.217Z,72.02758789
2022-08-26T21:30:21.683Z,72.25952148
2022-08-26T21:31:22.235Z,72.36328125
2022-08-26T21:32:22.634Z,72.76000977
2022-08-26T21:33:23.131Z,72.25952148
2022-08-26T21:34:23.595Z,72.25952148
2022-08-26T21:35:24.022Z,72.36328125
2022-08-26T21:36:24.460Z,72.55859375
2022-08-26T21:37:24.902Z,72.36328125
2022-08-26T21:38:26.019Z,72.4609375
2022-08-26T21:39:27.217Z,72.76000977
2022-08-26T21:40:27.771Z,72.66235352
2022-08-26T21:41:28.067Z,72.86376953
2022-08-26T21:42:28.553Z,72.36328125
2022-08-26T21:44:00.425Z,72.66235352
2022-08-26T21:45:00.909Z,72.4609375
2022-08-26T21:46:01.368Z,72.55859375
2022-08-26T21:47:01.829Z,72.55859375
2022-08-26T21:48:02.322Z,72.4609375
2022-08-26T21:49:02.765Z,72.55859375
2022-08-26T21:50:03.953Z,72.66235352
2022-08-26T21:51:04.380Z,72.55859375
2022-08-26T21:52:04.827Z,72.66235352
2022-08-26T21:53:05.978Z,72.66235352
2022-08-26T21:54:10.171Z,73.05908203
2022-08-26T21:55:09.045Z,73.09570313
2022-08-26T21:56:07.262Z,73.09570313
2022-08-26T21:57:07.692Z,73.19335938
2022-08-26T21:58:08.319Z,73.49853516
2022-08-26T21:59:08.644Z,73.39477539
2022-08-26T22:00:09.942Z,73.59619141
2022-08-26T22:01:10.421Z,73.69995117
2022-08-26T22:02:10.847Z,73.79760742
2022-08-26T22:03:11.551Z,73.89526367
2022-08-26T22:04:11.980Z,74.20043945
2022-08-26T22:05:12.424Z,74.59716797
2022-08-26T22:06:12.856Z,74.39575195
2022-08-26T22:07:14.285Z,74.20043945
2022-08-26T22:08:14.716Z,74.20043945
2022-08-26T22:09:15.157Z,74.2980957
2022-08-26T22:10:15.626Z,74.20043945
2022-08-26T22:11:16.063Z,74.2980957
2022-08-26T22:12:17.248Z,74.2980957
2022-08-26T22:13:17.721Z,74.20043945
2022-08-26T22:14:18.180Z,74.39575195
2022-08-26T22:15:18.625Z,74.59716797
2022-08-26T22:16:19.129Z,74.49951172
2022-08-26T22:17:19.531Z,74.09667969
2022-08-26T22:18:20.066Z,74.09667969
2022-08-26T22:19:23.480Z,74.2980957
2022-08-26T22:20:21.730Z,73.79760742
2022-08-26T22:21:22.149Z,73.89526367
2022-08-26T22:22:22.580Z,74.2980957
2022-08-26T22:23:22.969Z,73.99902344
2022-08-26T22:24:23.492Z,73.49853516
2022-08-26T22:25:23.936Z,73.59619141
2022-08-26T22:26:25.851Z,73.59619141
2022-08-26T22:27:24.819Z,73.89526367
2022-08-26T22:28:25.203Z,73.69995117
2022-08-26T22:29:26.252Z,73.59619141
2022-08-26T22:30:26.744Z,73.59619141
2022-08-26T22:31:28.102Z,73.36425781
2022-08-26T22:32:27.653Z,73.39477539
2022-08-26T22:33:28.547Z,73.49853516
2022-08-26T22:34:59.258Z,73.59619141
2022-08-26T22:35:59.763Z,73.59619141
2022-08-26T22:37:00.250Z,73.59619141
2022-08-26T22:38:00.764Z,73.69995117
2022-08-26T22:39:01.240Z,73.79760742
2022-08-26T22:40:02.518Z,73.99902344
2022-08-26T22:41:06.573Z,74.20043945
2022-08-26T22:42:03.396Z,74.59716797
2022-08-26T22:43:03.879Z,74.59716797
2022-08-26T22:44:04.320Z,74.49951172
2022-08-26T22:45:04.829Z,74.39575195
2022-08-26T22:46:05.392Z,74.16381836
2022-08-26T22:47:05.728Z,73.86474609
2022-08-26T22:48:06.258Z,73.96240234
2022-08-26T22:49:06.648Z,74.06005859
2022-08-26T22:50:08.028Z,74.16381836
2022-08-26T22:51:08.507Z,74.06005859
2022-08-26T22:52:09.750Z,74.06005859
2022-08-26T22:53:10.772Z,73.76098633
2022-08-26T22:54:11.501Z,73.76098633
2022-08-26T22:55:12.760Z,74.16381836
2022-08-26T22:56:14.337Z,74.46289063
2022-08-26T22:57:14.876Z,74.79858398
2022-08-26T22:58:15.353Z,75.39672852
2022-08-26T22:59:15.832Z,75.7019043
2022-08-26T23:00:17.011Z,75.79956055
2022-08-26T23:01:17.511Z,76.09863281
2022-08-26T23:02:18.029Z,76.30004883
2022-08-26T23:03:18.593Z,76.50146484
2022-08-26T23:04:19.039Z,76.59912109
2022-08-26T23:05:19.561Z,76.80053711
2022-08-26T23:06:20.028Z,77.00195313
2022-08-26T23:07:20.511Z,77.09960938
2022-08-26T23:08:21.041Z,77.40478516
2022-08-26T23:09:21.546Z,77.60009766
2022-08-26T23:10:23.017Z,77.09960938
2022-08-26T23:11:23.504Z,77.30102539
2022-08-26T23:12:23.967Z,77.60009766
2022-08-26T23:13:24.491Z,77.30102539
2022-08-26T23:14:24.977Z,77.20336914
2022-08-26T23:15:25.466Z,77.50244141
2022-08-26T23:16:25.979Z,77.50244141
2022-08-26T23:17:26.393Z,77.60009766
2022-08-26T23:18:26.857Z,77.70385742
2022-08-26T23:19:27.388Z,78.40576172
2022-08-26T23:20:58.823Z,78.50341797
2022-08-26T23:21:59.299Z,78.60107422
2022-08-26T23:23:00.751Z,78.50341797
2022-08-26T23:24:01.224Z,78.70483398
2022-08-26T23:25:01.743Z,78.50341797
2022-08-26T23:26:05.959Z,78.50341797
2022-08-26T23:27:02.719Z,78.40576172
2022-08-26T23:28:03.251Z,78.30200195
2022-08-26T23:29:03.760Z,78.30200195
2022-08-26T23:30:04.766Z,78.2043457
2022-08-26T23:31:05.233Z,78.2043457
2022-08-26T23:32:05.784Z,78.30200195
2022-08-26T23:33:06.377Z,78.40576172
2022-08-26T23:34:07.081Z,78.74145508
2022-08-26T23:35:07.553Z,79.04052734
2022-08-26T23:36:08.056Z,78.74145508
2022-08-26T23:37:08.536Z,78.2409668
2022-08-26T23:38:09.154Z,78.50341797
2022-08-26T23:39:09.666Z,78.83911133
2022-08-26T23:40:10.873Z,79.33959961
2022-08-26T23:41:11.526Z,78.54003906
2022-08-26T23:42:11.982Z,77.63671875
2022-08-26T23:43:12.450Z,78.03955078
2022-08-26T23:44:13.620Z,78.64379883
2022-08-26T23:45:14.107Z,78.83911133
2022-08-26T23:46:14.663Z,78.64379883
2022-08-26T23:47:15.077Z,78.44238281
2022-08-26T23:48:15.529Z,78.13720703
2022-08-26T23:49:16.262Z,78.64379883
2022-08-26T23:50:17.273Z,78.44238281
2022-08-26T23:51:17.802Z,77.94189453
2022-08-26T23:52:18.231Z,77.5390625
2022-08-26T23:53:18.697Z,77.33764648
2022-08-26T23:54:19.258Z,77.74047852
2022-08-26T23:55:19.756Z,77.94189453
2022-08-26T23:56:20.346Z,77.83813477
2022-08-26T23:57:20.812Z,78.13720703
2022-08-26T23:58:21.298Z,78.03955078
2022-08-26T23:59:21.888Z,77.74047852
